WZZ83 LRTM-LHBP
Flight info
| Callsign | WZZ83 |
|---|---|
| Flight time | N/A |
| Altitude | 36000 |
| Route | DOKUD DCT IXUBA DCT ELROM DCT BUDOP DCT KEZAL |
| Aircraft | A321/M-SDE1E2E3FGIJ1J4RWXY/LB1 |
Departure
| Time | 2026-04-15 15:55 |
|---|---|
| Airport | Târgu Mureş Transilvania International Airport (LRTM) |
Arrival
| Time | N/A |
|---|---|
| Airport | Budapest Liszt Ferenc International Airport (LHBP) |
| Time | Latitude | Longitude | Altitude | Speed | Heading |
|---|---|---|---|---|---|
| 2026-04-15 15:44 | 46.46825 | 24.42426 | 983 ft | 0 kts | 326° |
| 2026-04-15 15:47 | 46.46826 | 24.42426 | 984 ft | 0 kts | 326° |
| 2026-04-15 15:48 | 46.46825 | 24.42426 | 983 ft | 0 kts | 326° |
| 2026-04-15 15:53 | 46.46834 | 24.42423 | 983 ft | 3 kts | 353° |
| 2026-04-15 15:53 | 46.46855 | 24.42451 | 975 ft | 6 kts | 53° |
| 2026-04-15 15:53 | 46.46891 | 24.42511 | 977 ft | 8 kts | 32° |
| 2026-04-15 15:53 | 46.46952 | 24.42507 | 976 ft | 10 kts | 351° |
| 2026-04-15 15:54 | 46.47013 | 24.42476 | 979 ft | 8 kts | 302° |
| 2026-04-15 15:54 | 46.47003 | 24.42407 | 977 ft | 0 kts | 255° |
| 2026-04-15 15:54 | 46.46999 | 24.42384 | 973 ft | 9 kts | 255° |
| 2026-04-15 15:54 | 46.46905 | 24.41909 | 979 ft | 88 kts | 254° |
| 2026-04-15 15:55 | 46.46674 | 24.40717 | 981 ft | 154 kts | 254° |
| 2026-04-15 15:55 | 46.46343 | 24.39113 | 1488 ft | 163 kts | 253° |
| 2026-04-15 15:55 | 46.46022 | 24.37580 | 2379 ft | 156 kts | 257° |
| 2026-04-15 15:55 | 46.45719 | 24.36110 | 3053 ft | 152 kts | 257° |
| 2026-04-15 15:56 | 46.45408 | 24.34548 | 3461 ft | 169 kts | 257° |
| 2026-04-15 15:56 | 46.45078 | 24.32849 | 3971 ft | 180 kts | 256° |
| 2026-04-15 15:56 | 46.44735 | 24.31075 | 4573 ft | 185 kts | 254° |
| 2026-04-15 15:56 | 46.44452 | 24.29201 | 5054 ft | 198 kts | 264° |
| 2026-04-15 15:57 | 46.44580 | 24.27153 | 5411 ft | 215 kts | 292° |
| 2026-04-15 15:57 | 46.45551 | 24.25470 | 5754 ft | 230 kts | 318° |
| 2026-04-15 15:57 | 46.46767 | 24.23775 | 5985 ft | 255 kts | 304° |
| 2026-04-15 15:57 | 46.47520 | 24.21355 | 6473 ft | 271 kts | 288° |
| 2026-04-15 15:58 | 46.48123 | 24.18740 | 7227 ft | 276 kts | 287° |
| 2026-04-15 15:58 | 46.48735 | 24.16084 | 8055 ft | 279 kts | 287° |
| 2026-04-15 15:58 | 46.49353 | 24.13404 | 8887 ft | 282 kts | 287° |
| 2026-04-15 15:58 | 46.49977 | 24.10694 | 9721 ft | 285 kts | 287° |
| 2026-04-15 15:59 | 46.50609 | 24.07953 | 10410 ft | 293 kts | 287° |
| 2026-04-15 15:59 | 46.51278 | 24.05036 | 10659 ft | 316 kts | 287° |
| 2026-04-15 15:59 | 46.51990 | 24.01928 | 11067 ft | 330 kts | 287° |
| 2026-04-15 15:59 | 46.52722 | 23.98739 | 11769 ft | 335 kts | 287° |
| 2026-04-15 16:00 | 46.53462 | 23.95522 | 12542 ft | 337 kts | 287° |
| 2026-04-15 16:00 | 46.54207 | 23.92284 | 13319 ft | 339 kts | 287° |
| 2026-04-15 16:00 | 46.54957 | 23.89020 | 14078 ft | 342 kts | 287° |
| 2026-04-15 16:00 | 46.55709 | 23.85730 | 14744 ft | 345 kts | 287° |
| 2026-04-15 16:01 | 46.56466 | 23.82410 | 15407 ft | 348 kts | 287° |
| 2026-04-15 16:01 | 46.57229 | 23.79061 | 16069 ft | 351 kts | 287° |
| 2026-04-15 16:01 | 46.57999 | 23.75675 | 16735 ft | 354 kts | 287° |
| 2026-04-15 16:01 | 46.58774 | 23.72259 | 17389 ft | 358 kts | 287° |
| 2026-04-15 16:02 | 46.59555 | 23.68806 | 18044 ft | 361 kts | 287° |
| 2026-04-15 16:02 | 46.60342 | 23.65323 | 18656 ft | 365 kts | 288° |
| 2026-04-15 16:02 | 46.61139 | 23.61811 | 19239 ft | 367 kts | 288° |
| 2026-04-15 16:02 | 46.61941 | 23.58276 | 19835 ft | 369 kts | 288° |
| 2026-04-15 16:03 | 46.62745 | 23.54719 | 20445 ft | 371 kts | 288° |
| 2026-04-15 16:03 | 46.63550 | 23.51137 | 21045 ft | 374 kts | 288° |
| 2026-04-15 16:03 | 46.64360 | 23.47533 | 21646 ft | 376 kts | 288° |
| 2026-04-15 16:03 | 46.65174 | 23.43906 | 22254 ft | 378 kts | 288° |
| 2026-04-15 16:04 | 46.65991 | 23.40254 | 22863 ft | 380 kts | 288° |
| 2026-04-15 16:04 | 46.66810 | 23.36580 | 23433 ft | 383 kts | 288° |
| 2026-04-15 16:04 | 46.67634 | 23.32883 | 23928 ft | 385 kts | 288° |
| 2026-04-15 16:04 | 46.68459 | 23.29164 | 24410 ft | 387 kts | 288° |
| 2026-04-15 16:05 | 46.69287 | 23.25423 | 24858 ft | 389 kts | 288° |
| 2026-04-15 16:05 | 46.70117 | 23.21668 | 25325 ft | 390 kts | 287° |
| 2026-04-15 16:05 | 46.70950 | 23.17899 | 25786 ft | 392 kts | 287° |
| 2026-04-15 16:05 | 46.71786 | 23.14109 | 26246 ft | 394 kts | 287° |
| 2026-04-15 16:06 | 46.72625 | 23.10302 | 26696 ft | 395 kts | 287° |
| 2026-04-15 16:06 | 46.73464 | 23.06477 | 27132 ft | 397 kts | 286° |
| 2026-04-15 16:06 | 46.74010 | 23.02529 | 27567 ft | 399 kts | 276° |
| 2026-04-15 16:06 | 46.74060 | 22.98484 | 27995 ft | 401 kts | 268° |
| 2026-04-15 16:07 | 46.73933 | 22.94412 | 28411 ft | 403 kts | 268° |
| 2026-04-15 16:07 | 46.73809 | 22.90319 | 28818 ft | 405 kts | 268° |
| 2026-04-15 16:07 | 46.73564 | 22.82049 | 29569 ft | 411 kts | 268° |
| 2026-04-15 16:08 | 46.73440 | 22.77882 | 29960 ft | 413 kts | 268° |
| 2026-04-15 16:08 | 46.73313 | 22.73689 | 30334 ft | 415 kts | 268° |
| 2026-04-15 16:08 | 46.73182 | 22.69482 | 30675 ft | 417 kts | 268° |